Time;durP1;ratioP1;P1;durP2;ratioP2;P2;SDS_P1;SDS_P2;PMS_P1;PMS_P2;Temp;Humidity;BMP_temperature;BMP_pressure;BME280_temperature;BME280_humidity;BME280_pressure;Samples;Min_cycle;Max_cycle;Signal;HPM_P1;HPM_P2
2022/01/15 07:32:11;;;;;;;;;;;20.40;48.20;;;;;;3796776;22;19996;-88
2022/01/15 07:33:42;;;;;;;;;;;20.40;48.30;;;;;;3796789;23;19925;-87
2022/01/15 07:35:14;;;;;;;;;;;20.40;48.30;;;;;;3798080;23;19986;-87
2022/01/15 07:36:47;;;;;;;;;;;20.40;48.30;;;;;;3797619;23;19947;-88
2022/01/15 07:38:20;;;;;;;;;;;20.40;48.40;;;;;;3796957;23;19925;-87
2022/01/15 07:39:52;;;;;;;;;;;20.40;48.40;;;;;;3797464;22;19921;-88
2022/01/15 07:41:24;;;;;;;;;;;20.40;48.40;;;;;;3797918;22;19924;-88
2022/01/15 07:42:56;;;;;;;;;;;20.40;48.40;;;;;;3796555;22;19928;-88
2022/01/15 08:12:55;;;;;;;;;;;20.50;49.10;;;;;;3797283;22;19921;-88
2022/01/15 08:14:26;;;;;;;;;;;20.50;49.10;;;;;;3797412;23;19979;-87
2022/01/15 08:15:58;;;;;;;;;;;20.50;49.20;;;;;;3796642;22;19928;-88
2022/01/15 08:17:30;;;;;;;;;;;20.50;49.30;;;;;;3797804;22;20240;-88
2022/01/15 08:19:01;;;;;;;;;;;20.50;49.40;;;;;;3797716;22;19949;-86
2022/01/15 08:20:33;;;;;;;;;;;20.50;49.50;;;;;;3797584;22;20406;-86
2022/01/15 08:22:05;;;;;;;;;;;20.50;49.50;;;;;;3797128;22;19970;-87
2022/01/15 08:23:38;;;;;;;;;;;20.50;49.50;;;;;;3797918;22;20347;-87
2022/01/15 08:25:10;;;;;;;;;;;20.50;49.70;;;;;;3799105;23;19973;-90
2022/01/15 08:26:41;;;;;;;;;;;20.50;49.80;;;;;;3797179;23;19970;-88
2022/01/15 08:28:15;;;;;;;;;;;20.50;49.90;;;;;;3798375;22;19951;-87
2022/01/15 08:29:46;;;;;;;;;;;20.50;50.00;;;;;;3797522;23;19925;-87
2022/01/15 08:31:19;;;;;;;;;;;20.50;49.90;;;;;;3797404;22;19921;-88
2022/01/15 08:32:51;;;;;;;;;;;20.60;50.00;;;;;;3798097;22;19927;-88
2022/01/15 08:34:23;;;;;;;;;;;20.60;50.00;;;;;;3797059;23;19974;-88
2022/01/15 08:35:54;;;;;;;;;;;20.60;50.00;;;;;;3798698;23;20042;-87
2022/01/15 08:37:26;;;;;;;;;;;20.60;49.90;;;;;;3797282;22;20189;-88
2022/01/15 08:38:58;;;;;;;;;;;20.50;49.90;;;;;;3798025;22;19927;-87
2022/01/15 08:40:29;;;;;;;;;;;20.60;49.90;;;;;;3797951;22;19921;-87
2022/01/15 08:42:01;;;;;;;;;;;20.60;49.90;;;;;;3796682;22;19952;-88
2022/01/15 08:43:34;;;;;;;;;;;20.60;49.80;;;;;;3797630;23;20511;-87
2022/01/15 08:45:06;;;;;;;;;;;20.60;49.90;;;;;;3796410;22;19921;-88
2022/01/15 08:46:38;;;;;;;;;;;20.60;49.80;;;;;;3797906;22;19925;-88
2022/01/15 08:48:10;;;;;;;;;;;20.60;49.90;;;;;;3797469;22;19925;-87
2022/01/15 08:49:42;;;;;;;;;;;20.60;49.90;;;;;;3797293;23;19975;-88
2022/01/15 08:51:13;;;;;;;;;;;20.60;49.80;;;;;;3798085;22;19983;-87
2022/01/15 08:52:45;;;;;;;;;;;20.60;49.70;;;;;;3796985;22;20351;-88
2022/01/15 08:54:17;;;;;;;;;;;20.60;49.70;;;;;;3797981;22;20306;-87
2022/01/15 08:55:48;;;;;;;;;;;20.60;49.70;;;;;;3798089;23;19921;-87
2022/01/15 08:57:20;;;;;;;;;;;20.60;49.60;;;;;;3796814;22;19921;-87
2022/01/15 08:58:53;;;;;;;;;;;20.60;49.60;;;;;;3799214;23;19966;-88
2022/01/15 09:00:24;;;;;;;;;;;20.60;49.60;;;;;;3796545;22;20642;-87
2022/01/15 09:01:56;;;;;;;;;;;20.60;49.60;;;;;;3797092;22;19967;-88
2022/01/15 09:03:28;;;;;;;;;;;20.60;49.60;;;;;;3797925;22;20340;-88
2022/01/15 09:04:59;;;;;;;;;;;20.60;49.60;;;;;;3797458;23;19928;-88
2022/01/15 09:06:31;;;;;;;;;;;20.60;49.60;;;;;;3797844;23;19927;-87
2022/01/15 09:08:03;;;;;;;;;;;20.60;49.60;;;;;;3796805;22;19921;-88
2022/01/15 09:09:34;;;;;;;;;;;20.60;49.60;;;;;;3797226;22;19932;-87
2022/01/15 09:11:06;;;;;;;;;;;20.60;49.60;;;;;;3797453;22;19921;-87
2022/01/15 09:12:38;;;;;;;;;;;20.60;49.60;;;;;;3796671;22;19970;-87
2022/01/15 09:14:11;;;;;;;;;;;20.60;49.60;;;;;;3797333;23;19955;-87
2022/01/15 09:15:43;;;;;;;;;;;20.60;49.60;;;;;;3796422;22;20005;-87
2022/01/15 09:17:15;;;;;;;;;;;20.60;49.50;;;;;;3796927;22;19974;-87
2022/01/15 09:18:46;;;;;;;;;;;20.60;49.50;;;;;;3797488;22;19921;-87
2022/01/15 09:20:18;;;;;;;;;;;20.60;49.60;;;;;;3797928;22;20221;-87
2022/01/15 09:21:49;;;;;;;;;;;20.60;50.00;;;;;;3797305;22;19921;-87
2022/01/15 09:23:21;;;;;;;;;;;20.60;51.00;;;;;;3797634;22;19921;-88
2022/01/15 09:24:53;;;;;;;;;;;20.60;51.30;;;;;;3797919;22;19924;-87
2022/01/15 09:26:45;;;;;;;;;;;20.60;51.50;;;;;;3797779;22;19921;-89
2022/01/15 09:30:12;;;;;;;;;;;20.60;51.50;;;;;;3797233;22;20292;-91
2022/01/15 09:31:44;;;;;;;;;;;20.70;51.60;;;;;;3798396;23;20259;-87
2022/01/15 09:33:15;;;;;;;;;;;20.70;51.50;;;;;;3797026;22;19944;-88
2022/01/15 09:34:47;;;;;;;;;;;20.70;51.50;;;;;;3797093;23;19925;-89
2022/01/15 09:36:19;;;;;;;;;;;20.70;51.50;;;;;;3797697;23;19925;-87
2022/01/15 09:37:51;;;;;;;;;;;20.70;51.50;;;;;;3797131;22;19921;-86
2022/01/15 09:39:23;;;;;;;;;;;20.70;51.50;;;;;;3797350;22;20328;-87
2022/01/15 09:40:55;;;;;;;;;;;20.70;51.50;;;;;;3797673;23;20363;-87
2022/01/15 09:42:27;;;;;;;;;;;20.70;51.50;;;;;;3797207;22;19924;-87
2022/01/15 09:43:58;;;;;;;;;;;20.70;51.40;;;;;;3797592;22;19967;-88
2022/01/15 09:45:34;;;;;;;;;;;20.70;51.40;;;;;;3796997;22;20380;-87
2022/01/15 09:47:05;;;;;;;;;;;20.70;51.40;;;;;;3796876;22;19921;-88
2022/01/15 09:48:38;;;;;;;;;;;20.70;51.20;;;;;;3797800;23;19925;-88
2022/01/15 09:50:11;;;;;;;;;;;20.70;51.20;;;;;;3797249;22;20397;-87
2022/01/15 09:51:43;;;;;;;;;;;20.70;51.10;;;;;;3797567;22;19928;-89
2022/01/15 09:53:16;;;;;;;;;;;20.80;51.00;;;;;;3797221;22;19982;-88
2022/01/15 09:54:48;;;;;;;;;;;20.70;50.90;;;;;;3797651;22;20016;-92
2022/01/15 09:56:22;;;;;;;;;;;20.80;50.90;;;;;;3798277;22;19924;-92
2022/01/15 09:57:54;;;;;;;;;;;20.70;51.00;;;;;;3798768;22;19921;-90
2022/01/15 09:59:25;;;;;;;;;;;20.80;50.90;;;;;;3797601;22;19921;-89
2022/01/15 10:00:59;;;;;;;;;;;20.90;50.70;;;;;;3797543;22;19924;-90
2022/01/15 10:02:30;;;;;;;;;;;20.80;51.10;;;;;;3797054;22;19921;-92
2022/01/15 10:04:03;;;;;;;;;;;20.90;50.40;;;;;;3798489;22;19921;-90
2022/01/15 10:05:34;;;;;;;;;;;20.90;50.20;;;;;;3797560;23;20306;-91
2022/01/15 10:07:06;;;;;;;;;;;20.90;50.10;;;;;;3797009;22;19975;-90
2022/01/15 10:08:38;;;;;;;;;;;20.90;50.10;;;;;;3798693;23;19955;-91
2022/01/15 10:10:13;;;;;;;;;;;20.90;50.00;;;;;;3797743;22;19921;-90
2022/01/15 10:11:46;;;;;;;;;;;20.90;49.90;;;;;;3798578;23;20294;-90
2022/01/15 10:13:18;;;;;;;;;;;20.90;49.80;;;;;;3797750;22;19925;-90
2022/01/15 10:14:50;;;;;;;;;;;20.90;49.80;;;;;;3797608;22;20298;-90
2022/01/15 10:16:23;;;;;;;;;;;20.90;49.80;;;;;;3797896;22;19971;-90
2022/01/15 10:17:55;;;;;;;;;;;20.90;49.80;;;;;;3796865;22;19951;-90
2022/01/15 10:19:26;;;;;;;;;;;21.00;49.80;;;;;;3798402;23;20007;-90
2022/01/15 10:21:09;;;;;;;;;;;21.00;49.70;;;;;;3799046;22;19951;-90
2022/01/15 10:22:42;;;;;;;;;;;21.00;49.80;;;;;;3796263;22;19967;-90
2022/01/15 10:24:13;;;;;;;;;;;21.00;49.70;;;;;;3798206;22;19921;-91
2022/01/15 10:25:45;;;;;;;;;;;21.00;49.70;;;;;;3798926;23;20405;-90
2022/01/15 10:27:17;;;;;;;;;;;21.00;49.70;;;;;;3797215;22;19921;-90
2022/01/15 10:28:50;;;;;;;;;;;21.00;49.70;;;;;;3799429;22;20299;-91
2022/01/15 10:30:22;;;;;;;;;;;21.00;49.70;;;;;;3796633;22;19921;-90
2022/01/15 10:31:55;;;;;;;;;;;21.00;49.60;;;;;;3798325;22;19928;-90
2022/01/15 10:33:27;;;;;;;;;;;21.00;49.50;;;;;;3798350;22;19920;-90
2022/01/15 10:35:00;;;;;;;;;;;21.00;49.50;;;;;;3797992;22;19971;-91
2022/01/15 10:36:32;;;;;;;;;;;21.10;49.60;;;;;;3798750;22;20268;-90
2022/01/15 10:38:04;;;;;;;;;;;21.00;49.50;;;;;;3796750;22;19983;-90
2022/01/15 10:39:35;;;;;;;;;;;21.00;49.40;;;;;;3798501;22;19929;-90
2022/01/15 10:41:07;;;;;;;;;;;21.00;49.40;;;;;;3797892;22;19920;-91
2022/01/15 10:42:38;;;;;;;;;;;21.00;49.40;;;;;;3798238;22;19921;-91
2022/01/15 10:44:29;;;;;;;;;;;21.10;49.40;;;;;;3798596;23;19921;-90
2022/01/15 10:46:01;;;;;;;;;;;21.00;49.40;;;;;;3797645;22;20352;-89
2022/01/15 10:47:36;;;;;;;;;;;21.00;49.40;;;;;;3797951;22;20272;-91
2022/01/15 10:49:23;;;;;;;;;;;21.00;49.30;;;;;;3799385;22;19955;-90
2022/01/15 10:50:58;;;;;;;;;;;21.00;49.40;;;;;;3798207;23;19928;-90
2022/01/15 10:52:29;;;;;;;;;;;21.00;49.40;;;;;;3797378;22;19944;-90
2022/01/15 10:54:02;;;;;;;;;;;21.10;49.50;;;;;;3797696;22;19921;-90
2022/01/15 10:55:34;;;;;;;;;;;21.00;49.40;;;;;;3798041;22;20011;-90
2022/01/15 10:57:05;;;;;;;;;;;21.00;49.40;;;;;;3798691;22;20351;-90
2022/01/15 10:58:37;;;;;;;;;;;21.00;49.40;;;;;;3798051;22;19917;-90
2022/01/15 11:00:09;;;;;;;;;;;21.00;49.30;;;;;;3798040;22;19921;-90
2022/01/15 11:01:40;;;;;;;;;;;21.00;49.30;;;;;;3798207;22;19965;-90
2022/01/15 11:03:16;;;;;;;;;;;21.10;49.20;;;;;;3798822;22;19925;-90
2022/01/15 11:04:47;;;;;;;;;;;21.10;49.20;;;;;;3799349;23;19924;-90
2022/01/15 11:06:33;;;;;;;;;;;21.00;49.10;;;;;;3798129;22;20258;-90
2022/01/15 11:08:10;;;;;;;;;;;21.10;49.20;;;;;;3798701;22;19996;-91
2022/01/15 11:09:43;;;;;;;;;;;21.10;49.20;;;;;;3798493;22;19920;-90
2022/01/15 11:11:16;;;;;;;;;;;21.10;49.10;;;;;;3798195;22;20366;-90
2022/01/15 11:12:47;;;;;;;;;;;21.10;49.20;;;;;;3797800;22;19948;-90
2022/01/15 11:14:19;;;;;;;;;;;21.10;49.20;;;;;;3797883;22;19921;-90
2022/01/15 11:15:51;;;;;;;;;;;21.10;49.10;;;;;;3798665;22;19972;-91
2022/01/15 11:17:22;;;;;;;;;;;21.10;49.00;;;;;;3798330;22;19974;-92
2022/01/15 11:18:56;;;;;;;;;;;21.10;49.00;;;;;;3798061;22;19996;-90
2022/01/15 11:20:28;;;;;;;;;;;21.10;49.00;;;;;;3798634;22;19978;-90
2022/01/15 11:22:00;;;;;;;;;;;21.10;49.10;;;;;;3797557;22;19928;-90
2022/01/15 11:23:32;;;;;;;;;;;21.10;49.00;;;;;;3798699;22;19932;-90
2022/01/15 11:25:04;;;;;;;;;;;21.10;48.90;;;;;;3799100;23;19932;-90
2022/01/15 11:26:36;;;;;;;;;;;21.10;48.90;;;;;;3797718;22;19921;-90
2022/01/15 11:28:08;;;;;;;;;;;21.10;49.00;;;;;;3798530;22;19921;-90
2022/01/15 11:29:40;;;;;;;;;;;21.10;48.90;;;;;;3798197;22;19946;-90
2022/01/15 11:31:12;;;;;;;;;;;21.10;49.00;;;;;;3797704;22;20299;-90
2022/01/15 11:32:44;;;;;;;;;;;21.10;49.00;;;;;;3799141;22;19921;-90
2022/01/15 11:34:17;;;;;;;;;;;21.10;49.00;;;;;;3798560;22;19921;-90
2022/01/15 11:35:48;;;;;;;;;;;21.10;49.10;;;;;;3799165;22;19921;-90
2022/01/15 11:37:20;;;;;;;;;;;21.10;49.00;;;;;;3798183;22;19925;-90
2022/01/15 11:38:52;;;;;;;;;;;21.10;49.10;;;;;;3799249;23;19921;-91
2022/01/15 11:40:40;;;;;;;;;;;21.10;49.10;;;;;;3799856;23;19937;-89
2022/01/15 11:42:24;;;;;;;;;;;21.10;49.70;;;;;;3798867;22;19944;-90
2022/01/15 11:43:56;;;;;;;;;;;21.10;49.10;;;;;;3799409;23;19943;-91
2022/01/15 11:45:35;;;;;;;;;;;21.10;49.10;;;;;;3798685;22;20383;-91
2022/01/15 11:47:12;;;;;;;;;;;21.10;49.10;;;;;;3799344;22;19928;-90
2022/01/15 11:48:43;;;;;;;;;;;21.00;49.00;;;;;;3799664;23;19947;-90
2022/01/15 11:50:27;;;;;;;;;;;21.00;49.10;;;;;;3799479;22;19917;-90
2022/01/15 11:51:58;;;;;;;;;;;21.00;49.10;;;;;;3799938;22;20271;-90
2022/01/15 11:53:44;;;;;;;;;;;21.00;49.00;;;;;;3800220;23;19917;-90
2022/01/15 11:55:24;;;;;;;;;;;21.10;49.10;;;;;;3799741;23;19943;-91
2022/01/15 11:56:57;;;;;;;;;;;21.00;49.10;;;;;;3799450;22;20245;-90
2022/01/15 11:58:29;;;;;;;;;;;21.10;49.10;;;;;;3800094;22;20493;-89
2022/01/15 12:00:01;;;;;;;;;;;21.10;49.10;;;;;;3798667;22;19975;-88
2022/01/15 12:01:39;;;;;;;;;;;21.00;49.10;;;;;;3797742;22;20555;-91
2022/01/15 12:03:13;;;;;;;;;;;21.00;49.00;;;;;;3797135;22;19992;-90
2022/01/15 12:04:44;;;;;;;;;;;21.00;49.10;;;;;;3800139;22;19928;-89
2022/01/15 12:06:17;;;;;;;;;;;21.00;49.10;;;;;;3801528;22;19960;-89
2022/01/15 12:08:08;;;;;;;;;;;21.00;49.20;;;;;;3798620;22;19921;-90
2022/01/15 12:09:43;;;;;;;;;;;21.00;49.20;;;;;;3799275;23;19924;-89
2022/01/15 12:11:27;;;;;;;;;;;21.00;49.20;;;;;;3800167;22;20247;-90
2022/01/15 12:12:59;;;;;;;;;;;21.00;49.20;;;;;;3797022;22;19946;-89
2022/01/15 12:14:49;;;;;;;;;;;21.00;49.20;;;;;;3797953;22;19983;-89
2022/01/15 12:16:29;;;;;;;;;;;21.00;49.20;;;;;;3797523;22;19925;-90
2022/01/15 12:18:02;;;;;;;;;;;21.00;49.20;;;;;;3798903;22;19932;-90
2022/01/15 12:19:36;;;;;;;;;;;21.00;49.20;;;;;;3798679;23;19932;-90
2022/01/15 12:21:10;;;;;;;;;;;21.00;49.30;;;;;;3800027;23;20399;-94
2022/01/15 12:22:44;;;;;;;;;;;21.00;49.30;;;;;;3797415;22;19966;-90
2022/01/15 12:24:35;;;;;;;;;;;21.00;49.40;;;;;;3799963;22;20284;-90
2022/01/15 12:26:10;;;;;;;;;;;21.00;49.40;;;;;;3798810;23;20304;-89
2022/01/15 12:27:41;;;;;;;;;;;21.00;49.50;;;;;;3798570;22;20438;-89
2022/01/15 12:29:18;;;;;;;;;;;21.00;49.50;;;;;;3799483;22;19921;-91
2022/01/15 18:45:38;;;;;;;;;;;21.20;50.00;;;;;;3812248;22;19921;-87
2022/01/15 18:47:09;;;;;;;;;;;21.20;50.30;;;;;;3814463;22;19933;-87
2022/01/15 18:48:41;;;;;;;;;;;21.20;50.00;;;;;;3815747;22;19970;-88
2022/01/15 18:50:13;;;;;;;;;;;21.20;50.30;;;;;;3807445;22;19924;-84
2022/01/15 18:51:45;;;;;;;;;;;21.30;50.40;;;;;;3815627;22;19924;-86
2022/01/15 18:53:16;;;;;;;;;;;21.20;52.40;;;;;;3814405;22;19965;-84
2022/01/15 18:54:48;;;;;;;;;;;21.30;50.60;;;;;;3802619;22;19965;-87
2022/01/15 18:56:22;;;;;;;;;;;21.20;50.30;;;;;;3797524;23;19959;-88
2022/01/15 18:57:53;;;;;;;;;;;21.30;50.70;;;;;;3800637;22;19994;-86
2022/01/15 18:59:25;;;;;;;;;;;21.30;50.40;;;;;;3797891;23;19967;-87
2022/01/15 19:00:59;;;;;;;;;;;21.30;50.40;;;;;;3794362;22;19986;-85
2022/01/15 19:02:31;;;;;;;;;;;21.30;50.40;;;;;;3798826;22;19920;-85
2022/01/15 19:04:02;;;;;;;;;;;21.40;50.40;;;;;;3798276;23;19952;-86
2022/01/15 19:05:34;;;;;;;;;;;21.30;50.00;;;;;;3800966;22;20366;-85
2022/01/15 19:07:05;;;;;;;;;;;21.40;49.80;;;;;;3799121;22;19928;-86
2022/01/15 19:08:37;;;;;;;;;;;21.40;49.70;;;;;;3799841;22;20000;-85
2022/01/15 19:10:09;;;;;;;;;;;21.40;49.60;;;;;;3799420;22;20383;-88
2022/01/15 19:11:41;;;;;;;;;;;21.40;50.00;;;;;;3797670;22;19921;-86
2022/01/15 19:13:13;;;;;;;;;;;21.30;50.00;;;;;;3797664;22;20290;-86
2022/01/15 19:14:44;;;;;;;;;;;21.40;50.00;;;;;;3798100;22;19925;-86
2022/01/15 19:16:17;;;;;;;;;;;21.40;50.00;;;;;;3798432;22;20397;-86
2022/01/15 19:17:49;;;;;;;;;;;21.40;50.00;;;;;;3797631;22;19921;-87
2022/01/15 19:19:21;;;;;;;;;;;21.40;49.90;;;;;;3797755;22;19966;-87
2022/01/15 19:20:52;;;;;;;;;;;21.40;49.90;;;;;;3798398;22;19925;-86
2022/01/15 19:22:24;;;;;;;;;;;21.40;49.90;;;;;;3797936;22;19921;-86
2022/01/15 19:23:55;;;;;;;;;;;21.40;49.80;;;;;;3798712;22;19925;-87
2022/01/15 19:25:30;;;;;;;;;;;21.40;49.80;;;;;;3798161;22;19971;-87
2022/01/15 19:27:01;;;;;;;;;;;21.40;49.70;;;;;;3797534;22;20174;-86
2022/01/15 19:28:33;;;;;;;;;;;21.40;49.60;;;;;;3798035;23;19921;-86
2022/01/15 19:30:05;;;;;;;;;;;21.40;49.60;;;;;;3797295;22;19975;-87
2022/01/15 19:31:38;;;;;;;;;;;21.40;49.60;;;;;;3798906;22;20354;-86
2022/01/15 19:33:10;;;;;;;;;;;21.40;49.50;;;;;;3796630;22;19925;-86
2022/01/15 19:34:42;;;;;;;;;;;21.40;49.50;;;;;;3798217;23;19921;-86
2022/01/15 19:36:13;;;;;;;;;;;21.40;49.40;;;;;;3799353;23;20259;-85
2022/01/15 19:37:45;;;;;;;;;;;21.40;49.40;;;;;;3798185;22;19921;-86
2022/01/15 19:39:31;;;;;;;;;;;21.40;49.40;;;;;;3799234;23;20057;-86
2022/01/15 19:41:02;;;;;;;;;;;21.40;49.30;;;;;;3798688;23;19921;-87
2022/01/15 19:42:34;;;;;;;;;;;21.40;49.30;;;;;;3797226;22;19966;-85
2022/01/15 19:44:06;;;;;;;;;;;21.40;49.30;;;;;;3798510;23;20306;-86
2022/01/15 19:45:38;;;;;;;;;;;21.40;49.20;;;;;;3797555;22;19925;-86
2022/01/15 19:47:11;;;;;;;;;;;21.40;49.20;;;;;;3798938;22;19973;-86
2022/01/15 19:48:43;;;;;;;;;;;21.40;49.20;;;;;;3798618;22;20253;-87
2022/01/15 19:50:15;;;;;;;;;;;21.40;49.10;;;;;;3797558;22;19925;-86
2022/01/15 19:51:47;;;;;;;;;;;21.40;49.10;;;;;;3798875;22;20294;-90
2022/01/15 19:53:20;;;;;;;;;;;21.50;49.10;;;;;;3797915;23;19921;-85
2022/01/15 19:54:51;;;;;;;;;;;21.40;49.00;;;;;;3799116;23;19925;-88
2022/01/15 19:56:23;;;;;;;;;;;21.50;49.00;;;;;;3799745;22;20339;-89
2022/01/15 19:57:55;;;;;;;;;;;21.40;48.90;;;;;;3799103;22;19924;-86
2022/01/15 19:59:27;;;;;;;;;;;21.40;48.90;;;;;;3800011;22;19921;-88
2022/01/15 20:00:59;;;;;;;;;;;21.40;48.90;;;;;;3797136;22;19921;-88
2022/01/15 20:02:32;;;;;;;;;;;21.40;48.90;;;;;;3798035;22;19928;-86
2022/01/15 20:04:04;;;;;;;;;;;21.40;48.90;;;;;;3799092;23;19921;-88
2022/01/15 20:05:36;;;;;;;;;;;21.40;48.90;;;;;;3803835;23;19921;-88
2022/01/15 20:07:08;;;;;;;;;;;21.40;48.80;;;;;;3800177;22;19958;-87
2022/01/15 20:08:39;;;;;;;;;;;21.40;48.80;;;;;;3798373;23;19921;-88
2022/01/15 20:10:11;;;;;;;;;;;21.40;48.70;;;;;;3797845;22;19951;-87
2022/01/15 20:11:43;;;;;;;;;;;21.40;48.70;;;;;;3798247;22;19925;-87
2022/01/15 20:13:15;;;;;;;;;;;21.40;48.70;;;;;;3799482;22;19921;-87
2022/01/15 20:14:46;;;;;;;;;;;21.40;48.70;;;;;;3799658;22;19921;-86
2022/01/15 20:16:18;;;;;;;;;;;21.40;48.70;;;;;;3799328;22;19925;-87
2022/01/15 20:17:51;;;;;;;;;;;21.40;48.70;;;;;;3797836;22;20003;-86
2022/01/15 20:19:23;;;;;;;;;;;21.40;48.60;;;;;;3799419;23;20240;-86
2022/01/15 20:20:55;;;;;;;;;;;21.40;48.60;;;;;;3799969;22;19921;-87
2022/01/15 20:22:26;;;;;;;;;;;21.40;48.60;;;;;;3798998;22;19921;-87
2022/01/15 20:23:58;;;;;;;;;;;21.40;48.50;;;;;;3801807;23;19921;-87
2022/01/15 20:25:30;;;;;;;;;;;21.40;48.60;;;;;;3799048;22;19925;-87
2022/01/15 20:27:02;;;;;;;;;;;21.40;48.50;;;;;;3799238;22;19932;-87
2022/01/15 20:28:34;;;;;;;;;;;21.40;48.50;;;;;;3800039;23;20093;-87
2022/01/15 20:30:06;;;;;;;;;;;21.40;48.50;;;;;;3798105;22;19943;-88
2022/01/15 20:31:37;;;;;;;;;;;21.40;48.50;;;;;;3800134;22;20508;-87
2022/01/15 20:33:10;;;;;;;;;;;21.40;48.40;;;;;;3798882;22;19921;-87
2022/01/15 20:34:44;;;;;;;;;;;21.40;48.40;;;;;;3800156;23;19924;-87
2022/01/15 20:36:16;;;;;;;;;;;21.40;48.50;;;;;;3798889;22;19933;-87
2022/01/15 20:37:48;;;;;;;;;;;21.40;48.40;;;;;;3797836;22;19921;-87
2022/01/15 20:39:20;;;;;;;;;;;21.40;48.40;;;;;;3799934;23;19999;-87
2022/01/15 20:40:51;;;;;;;;;;;21.40;48.40;;;;;;3799291;23;19925;-87
2022/01/15 20:42:23;;;;;;;;;;;21.40;48.40;;;;;;3800406;22;20367;-87
2022/01/15 20:43:55;;;;;;;;;;;21.40;48.40;;;;;;3801813;22;19931;-87
2022/01/15 20:45:27;;;;;;;;;;;21.40;48.30;;;;;;3799295;22;19925;-87
2022/01/15 20:46:59;;;;;;;;;;;21.40;48.30;;;;;;3800608;22;19929;-87
2022/01/15 20:48:32;;;;;;;;;;;21.40;48.30;;;;;;3800605;23;19988;-86
2022/01/15 20:50:04;;;;;;;;;;;21.40;48.30;;;;;;3801268;22;19925;-87
2022/01/15 20:51:36;;;;;;;;;;;21.40;48.30;;;;;;3801083;23;19966;-86
2022/01/15 20:53:08;;;;;;;;;;;21.40;48.30;;;;;;3798511;22;19921;-86
2022/01/15 20:54:39;;;;;;;;;;;21.40;48.30;;;;;;3799801;23;19951;-86
2022/01/15 20:56:11;;;;;;;;;;;21.40;48.30;;;;;;3797367;23;19988;-86
2022/01/15 20:57:44;;;;;;;;;;;21.40;48.20;;;;;;3799379;22;19948;-87
2022/01/15 20:59:16;;;;;;;;;;;21.40;48.20;;;;;;3799849;23;20355;-86
2022/01/15 21:00:47;;;;;;;;;;;21.40;48.80;;;;;;3797915;22;19951;-86
2022/01/15 21:02:20;;;;;;;;;;;21.40;48.20;;;;;;3801000;22;20344;-87
2022/01/15 21:03:53;;;;;;;;;;;21.40;48.20;;;;;;3797745;22;19925;-87
2022/01/15 21:05:25;;;;;;;;;;;21.40;48.10;;;;;;3800339;22;19977;-87
2022/01/15 21:06:56;;;;;;;;;;;21.40;48.20;;;;;;3798620;22;19925;-86
2022/01/15 21:08:28;;;;;;;;;;;21.40;48.20;;;;;;3799376;23;19921;-87
2022/01/15 21:10:00;;;;;;;;;;;21.40;48.10;;;;;;3799974;22;19947;-87
2022/01/15 21:11:31;;;;;;;;;;;21.30;48.10;;;;;;3799544;22;19929;-86
2022/01/15 21:13:05;;;;;;;;;;;21.40;48.10;;;;;;3795673;22;19967;-86
2022/01/15 21:14:36;;;;;;;;;;;21.40;48.10;;;;;;3797446;23;19921;-86
2022/01/15 21:16:08;;;;;;;;;;;21.40;48.10;;;;;;3797988;22;19921;-87
2022/01/15 21:17:39;;;;;;;;;;;21.40;48.10;;;;;;3798895;22;20241;-86
2022/01/15 21:19:12;;;;;;;;;;;21.30;48.00;;;;;;3799314;22;19996;-86
2022/01/15 21:20:44;;;;;;;;;;;21.40;48.10;;;;;;3799902;23;20340;-88
2022/01/15 21:22:16;;;;;;;;;;;21.30;48.10;;;;;;3798788;22;19920;-87
2022/01/15 21:23:48;;;;;;;;;;;21.30;48.10;;;;;;3798083;23;19921;-87
2022/01/15 21:25:19;;;;;;;;;;;21.40;48.10;;;;;;3799572;22;20359;-87
2022/01/15 21:26:51;;;;;;;;;;;21.40;48.00;;;;;;3797876;22;19932;-86
2022/01/15 21:28:23;;;;;;;;;;;21.40;48.10;;;;;;3800040;23;19921;-87
2022/01/15 21:29:54;;;;;;;;;;;21.30;48.00;;;;;;3798507;23;19921;-87
2022/01/15 21:31:26;;;;;;;;;;;21.40;48.00;;;;;;3801612;22;19951;-86
2022/01/15 21:32:58;;;;;;;;;;;21.40;48.00;;;;;;3800996;22;19921;-87
2022/01/15 21:34:31;;;;;;;;;;;21.30;48.00;;;;;;3799742;23;19921;-86
2022/01/15 21:36:03;;;;;;;;;;;21.30;47.90;;;;;;3799245;23;19921;-87
2022/01/15 21:37:36;;;;;;;;;;;21.30;47.90;;;;;;3799565;22;19966;-86
2022/01/15 21:39:08;;;;;;;;;;;21.30;47.90;;;;;;3799740;23;19952;-86
2022/01/15 21:40:40;;;;;;;;;;;21.30;47.90;;;;;;3799692;23;19921;-88
2022/01/15 21:42:11;;;;;;;;;;;21.30;47.90;;;;;;3799322;22;20332;-87
2022/01/15 21:43:43;;;;;;;;;;;21.30;47.90;;;;;;3798090;22;19935;-87
2022/01/15 21:45:15;;;;;;;;;;;21.30;47.90;;;;;;3797570;22;19955;-87
2022/01/15 21:46:47;;;;;;;;;;;21.30;47.90;;;;;;3799635;23;20389;-87
2022/01/15 21:48:19;;;;;;;;;;;21.30;47.90;;;;;;3798175;22;20267;-86
2022/01/15 21:49:52;;;;;;;;;;;21.30;47.90;;;;;;3800892;23;19969;-86
2022/01/15 21:51:24;;;;;;;;;;;21.30;47.90;;;;;;3798866;22;19926;-86
2022/01/15 21:52:56;;;;;;;;;;;21.30;47.90;;;;;;3795304;22;19921;-87
2022/01/15 21:54:28;;;;;;;;;;;21.30;47.90;;;;;;3797116;22;19943;-86
2022/01/15 21:56:00;;;;;;;;;;;21.30;47.90;;;;;;3797902;22;19921;-87
2022/01/15 21:57:31;;;;;;;;;;;21.30;47.80;;;;;;3797795;22;19925;-87
2022/01/15 21:59:03;;;;;;;;;;;21.30;47.80;;;;;;3797778;23;20314;-87
2022/01/15 22:00:35;;;;;;;;;;;21.30;47.80;;;;;;3797413;22;19928;-88
2022/01/15 22:02:07;;;;;;;;;;;21.30;47.80;;;;;;3797626;22;19921;-88
2022/01/15 22:03:38;;;;;;;;;;;21.30;47.80;;;;;;3796124;23;19970;-88
2022/01/15 22:05:11;;;;;;;;;;;21.30;47.90;;;;;;3799882;22;20283;-87
2022/01/15 22:06:43;;;;;;;;;;;21.20;48.00;;;;;;3801078;22;19920;-87
2022/01/15 22:08:15;;;;;;;;;;;21.20;48.10;;;;;;3801681;22;19921;-87
2022/01/15 22:09:46;;;;;;;;;;;21.10;48.20;;;;;;3806086;22;19979;-88
2022/01/15 22:11:18;;;;;;;;;;;21.00;48.40;;;;;;3805911;22;19921;-86
2022/01/15 22:12:53;;;;;;;;;;;21.00;48.50;;;;;;3806150;22;19971;-87
2022/01/15 22:14:25;;;;;;;;;;;20.90;48.60;;;;;;3805437;23;19921;-87
2022/01/15 22:15:57;;;;;;;;;;;20.90;48.70;;;;;;3805079;22;19921;-87
2022/01/15 22:17:29;;;;;;;;;;;20.90;48.70;;;;;;3804098;22;19924;-86
2022/01/15 22:19:00;;;;;;;;;;;20.90;48.80;;;;;;3801902;22;20339;-87
2022/01/15 22:20:35;;;;;;;;;;;20.90;48.80;;;;;;3804823;22;19952;-87
2022/01/15 22:22:07;;;;;;;;;;;20.90;48.80;;;;;;3802911;22;19931;-87
2022/01/15 22:23:38;;;;;;;;;;;20.80;48.80;;;;;;3800909;22;19948;-87
2022/01/15 22:25:10;;;;;;;;;;;20.80;49.50;;;;;;3803241;22;19924;-87
2022/01/15 22:26:42;;;;;;;;;;;20.80;48.90;;;;;;3802767;23;19929;-87
2022/01/15 22:28:13;;;;;;;;;;;20.80;48.90;;;;;;3804383;22;19921;-87
2022/01/15 22:29:45;;;;;;;;;;;20.80;49.00;;;;;;3803303;22;19944;-86
2022/01/15 22:31:17;;;;;;;;;;;20.80;48.90;;;;;;3803533;22;19970;-87
2022/01/15 22:32:48;;;;;;;;;;;20.80;48.90;;;;;;3805996;22;19951;-87
2022/01/15 22:34:20;;;;;;;;;;;20.80;48.90;;;;;;3806299;23;19951;-86
2022/01/15 22:35:53;;;;;;;;;;;20.80;49.00;;;;;;3806054;22;19937;-86
2022/01/15 22:37:25;;;;;;;;;;;20.80;48.90;;;;;;3805083;22;19921;-88
2022/01/15 22:38:56;;;;;;;;;;;20.80;49.00;;;;;;3805272;23;19921;-86
2022/01/15 22:40:28;;;;;;;;;;;20.70;48.90;;;;;;3804929;23;19967;-87
2022/01/15 22:41:59;;;;;;;;;;;20.80;49.00;;;;;;3804213;22;19988;-88
2022/01/15 22:43:32;;;;;;;;;;;20.70;49.00;;;;;;3805089;22;20500;-86
2022/01/15 22:45:05;;;;;;;;;;;20.70;49.00;;;;;;3806973;22;19937;-86
2022/01/15 22:46:37;;;;;;;;;;;20.70;49.00;;;;;;3805517;23;19921;-87
2022/01/15 22:48:08;;;;;;;;;;;20.70;49.00;;;;;;3806975;22;19921;-86
2022/01/15 22:49:40;;;;;;;;;;;20.70;49.00;;;;;;3807817;22;19960;-87
2022/01/15 22:51:13;;;;;;;;;;;20.70;49.00;;;;;;3810544;23;19925;-87
2022/01/15 22:52:45;;;;;;;;;;;20.70;49.00;;;;;;3809605;22;19921;-87
2022/01/15 22:54:16;;;;;;;;;;;20.70;49.00;;;;;;3808885;23;19973;-88
2022/01/15 22:55:48;;;;;;;;;;;20.70;49.00;;;;;;3810137;22;19990;-87
2022/01/15 22:57:21;;;;;;;;;;;20.70;49.00;;;;;;3807021;22;19921;-87
2022/01/15 22:58:53;;;;;;;;;;;20.70;49.00;;;;;;3805716;22;19921;-87
2022/01/15 23:00:28;;;;;;;;;;;20.70;49.00;;;;;;3804585;22;19921;-88
2022/01/15 23:02:00;;;;;;;;;;;20.70;49.10;;;;;;3805332;22;19921;-87
2022/01/15 23:03:31;;;;;;;;;;;20.70;49.00;;;;;;3804381;22;19921;-87
2022/01/15 23:05:03;;;;;;;;;;;20.70;49.00;;;;;;3804608;23;19921;-87
2022/01/15 23:06:36;;;;;;;;;;;20.70;49.00;;;;;;3805425;23;19924;-86
2022/01/15 23:08:08;;;;;;;;;;;20.70;49.00;;;;;;3807054;22;19925;-88
2022/01/15 23:09:40;;;;;;;;;;;20.60;48.90;;;;;;3806265;22;19921;-86
2022/01/15 23:11:18;;;;;;;;;;;20.70;49.00;;;;;;3805474;22;19943;-88
2022/01/15 23:12:57;;;;;;;;;;;20.60;49.00;;;;;;3805229;22;19917;-87
2022/01/15 23:14:29;;;;;;;;;;;20.60;49.00;;;;;;3804263;23;19928;-87
2022/01/15 23:16:06;;;;;;;;;;;20.60;49.00;;;;;;3805117;22;19947;-87